Flight Track Log - Related Links

Times and Time Zones

All times are in EDT time to prevent confusion due to time zone crossing. See the CHB6209 flight status page for this flight to view local times or setup timezone preferences in your user account.

Time Position Orientation Groundspeed Altitude Reporting Facility
EDT Latitude Longitude Course Direction KTS MPH feet Rate Location/Type
Tue 09:07:00 PM 33.0721 104.7398 76° East  Level Estimated
Tue 09:08:00 PM 33.0954 104.8575 77° East  Level Estimated
Tue 09:09:00 PM 33.1187 104.9753 77° East  Level Estimated
Tue 09:10:00 PM 33.1418 105.0932 77° East  Level Estimated
Tue 09:11:00 PM 33.1648 105.2111 77° East  Level Estimated
Tue 09:12:00 PM 33.1877 105.3291 77° East  Level Estimated
Tue 09:13:00 PM 33.2105 105.4471 77° East  Level Estimated
Tue 09:14:00 PM 33.2332 105.5652 77° East  Level Estimated
Tue 09:15:00 PM 33.2558 105.6834 77° East  Level Estimated
Tue 09:16:00 PM 33.2782 105.8017 77° East  Level Estimated
Tue 09:17:00 PM 33.3006 105.9199 77° East  Level Estimated
Tue 09:18:00 PM 33.3228 106.0383 77° East  Level Estimated
Tue 09:19:00 PM 33.3449 106.1567 77° East  Level Estimated
Tue 09:20:00 PM 33.3669 106.2752 77° East  Level Estimated
Tue 09:21:00 PM 33.3888 106.3937 77° East  Level Estimated
Tue 09:22:00 PM 33.4106 106.5123 78° East  Level Estimated
Tue 09:23:00 PM 33.4323 106.6310 78° East  Level Estimated
Tue 09:24:00 PM 33.4538 106.7497 78° East  Level Estimated
Tue 09:25:00 PM 33.4753 106.8684 78° East  Level Estimated
Tue 09:26:00 PM 33.4966 106.9873 78° East  Level Estimated
Tue 09:27:00 PM 33.5178 107.1061 78° East  Level Estimated
Tue 09:28:00 PM 33.5389 107.2251 78° East  Level Estimated
Tue 09:29:00 PM 33.5599 107.3441 78° East  Level Estimated
Tue 09:30:00 PM 33.5808 107.4631 78° East  Level Estimated
Tue 09:31:00 PM 33.6016 107.5823 78° East  Level Estimated
Tue 09:32:00 PM 33.6222 107.7014 78° East  Level Estimated
Tue 09:33:00 PM 33.6427 107.8207 78° East  Level Estimated
Tue 09:34:00 PM 33.6632 107.9399 78° East  Level Estimated
Tue 09:35:00 PM 33.6835 108.0593 78° East  Level Estimated
Tue 09:36:00 PM 33.7037 108.1787 78° East  Level Estimated
Tue 09:37:00 PM 33.7237 108.2981 79° East  Level Estimated
Tue 09:38:00 PM 33.7437 108.4177 79° East  Level Estimated
Tue 09:39:00 PM 33.7635 108.5372 79° East  Level Estimated
Tue 09:40:00 PM 33.7833 108.6569 79° East  Level Estimated
Tue 09:41:00 PM 33.8029 108.7765 79° East  Level Estimated
Tue 09:42:00 PM 33.8224 108.8963 79° East  Level Estimated
Tue 09:43:00 PM 33.8418 109.0161 79° East  Level Estimated
Tue 09:44:00 PM 33.8610 109.1359 79° East  Level Estimated
Tue 09:45:00 PM 33.8802 109.2558 79° East  Level Estimated
Tue 09:46:00 PM 33.8992 109.3757 79° East  Level Estimated
Tue 09:47:00 PM 33.9181 109.4957 79° East  Level Estimated
Tue 09:48:00 PM 33.9369 109.6158 79° East  Level Estimated
Tue 09:49:00 PM 33.9556 109.7359 79° East  Level Estimated
Tue 09:50:00 PM 33.9742 109.8561 79° East  Level Estimated
Tue 09:51:00 PM 33.9926 109.9763 79° East  Level Estimated
Tue 09:52:00 PM 34.0110 110.0965 80° East  Level Estimated
Tue 09:53:00 PM 34.0292 110.2169 80° East  Level Estimated
Tue 09:54:00 PM 34.0473 110.3372 80° East  Level Estimated
Tue 09:55:00 PM 34.0653 110.4576 80° East  Level Estimated
Tue 09:56:00 PM 34.0831 110.5781 80° East  Level Estimated
Tue 09:57:00 PM 34.1009 110.6986 80° East  Level Estimated
Tue 09:58:00 PM 34.1185 110.8192 80° East  Level Estimated
Tue 09:59:00 PM 34.1360 110.9398 80° East  Level Estimated
Tue 10:00:00 PM 34.1534 111.0605 80° East  Level Estimated
Tue 10:01:00 PM 34.1707 111.1812 80° East  Level Estimated
Tue 10:02:00 PM 34.1879 111.3020 80° East  Level Estimated
Tue 10:03:00 PM 34.2049 111.4228 80° East  Level Estimated
Tue 10:04:00 PM 34.2218 111.5437 80° East  Level Estimated
Tue 10:05:00 PM 34.2386 111.6646 80° East  Level Estimated
Tue 10:06:00 PM 34.2553 111.7856 80° East  Level Estimated
Tue 10:07:00 PM 34.2719 111.9066 81° East  Level Estimated
Tue 10:08:00 PM 34.2883 112.0276 81° East  Level Estimated
Tue 10:09:00 PM 34.3046 112.1487 81° East  Level Estimated
Tue 10:10:00 PM 34.3209 112.2699 81° East  Level Estimated
Tue 10:11:00 PM 34.3369 112.3911 81° East  Level Estimated
Tue 10:12:00 PM 34.3529 112.5123 81° East  Level Estimated
Tue 10:13:00 PM 34.3688 112.6336 81° East  Level Estimated
Tue 10:14:00 PM 34.3845 112.7550 81° East  Level Estimated
Tue 10:15:00 PM 34.4001 112.8764 81° East  Level Estimated
Tue 10:16:00 PM 34.4156 112.9978 81° East  Level Estimated
Tue 10:17:00 PM 34.4310 113.1193 81° East  Level Estimated
Tue 10:18:00 PM 34.4462 113.2408 81° East  Level Estimated
Tue 10:19:00 PM 34.4613 113.3623 81° East  Level Estimated
Tue 10:20:00 PM 34.4763 113.4839 81° East  Level Estimated
Tue 10:21:00 PM 34.4912 113.6056 82° East  Level Estimated
Tue 10:22:00 PM 34.5060 113.7273 82° East  Level Estimated
Tue 10:23:00 PM 34.5197 113.8409 82° East  Level Estimated
Tue 10:24:00 PM 34.5197 113.8409 North  Level Estimated
Tue 10:25:00 PM 34.5197 113.8409 North  Level Estimated
Tue 10:26:00 PM 34.5197 113.8409 North  Level Estimated
Tue 10:27:00 PM 34.5197 113.8409 North  Level Estimated
Tue 10:28:00 PM 34.5197 113.8409 North  Level Estimated
Tue 10:29:00 PM 34.5197 113.8409 North  Level Estimated
Tue 10:30:00 PM 34.5197 113.8409 North  Level Estimated
Tue 10:31:00 PM 34.5197 113.8409 North  Level Estimated
Tue 10:32:00 PM 34.5197 113.8409 North  Level Estimated
Tue 10:33:00 PM 34.5197 113.8409 North  Level Estimated
Tue 10:34:00 PM 34.5197 113.8409 North  Level Estimated
Tue 10:35:00 PM 34.5197 113.8409 North  Level Estimated
Tue 10:36:00 PM 34.5197 113.8409 North  Level Estimated
Tue 10:37:00 PM 34.5197 113.8409 North  Level Estimated

Login

Don't have an account? Register now (free) for customized features, flight alerts, and more!